SCC: Birmingham: GS practice two times

Pos Num Class Team Time Gap To 1st Speed --- --- ----- ------------------------------ ---------- ------- ------- ------- 1. 96 GS Turner Motorsport 1:38.210 84.309 2. 41...

Pos Num Class Team                                 Time     Gap  To 1st   Speed
--- --- ----- ------------------------------ ---------- ------- ------- -------
 1.  96 GS    Turner Motorsport                1:38.210                  84.309
 2.  41 GS    TRG                              1:38.703   0.493   0.493  83.888
 3. 154 GS    Jim Click Racing                 1:39.037   0.334   0.827  83.605
 4.   9 GS    Spirit of Daytona Racing         1:39.079   0.042   0.869  83.570
 5.  26 GS    Fiorano/C-MAX Racing             1:39.138   0.059   0.928  83.520
 6.  42 GS    TRG                              1:39.322   0.184   1.112  83.365
 7.  97 GS    Turner Motorsport                1:39.389   0.067   1.179  83.309
 8.  28 GS    Fall-Line Motorsports            1:39.443   0.054   1.233  83.264
 9.  83 GS    BGB Motorsports                  1:39.599   0.156   1.389  83.133
10.  25 GS    Fiorano/C-MAX Racing             1:39.660   0.061   1.450  83.082
11.  09 GS    Automatic Racing                 1:39.663   0.003   1.453  83.080
12.  91 GS    Automatic Racing                 1:39.782   0.119   1.572  82.981
13.   5 GS    Blackforest Motorsports          1:39.812   0.030   1.602  82.956
14.  40 GS    TRG                              1:39.829   0.017   1.619  82.942
15.  55 GS    Hyper Sport                      1:39.885   0.056   1.675  82.895
16.  38 GS    BGB Motorsports                  1:39.969   0.084   1.759  82.826
17.  37 GS    JBS Racing                       1:40.054   0.085   1.844  82.755
18.  17 GS    Team Centurion                   1:40.135   0.081   1.925  82.688
19.  79 GS    Kinetic Motorsports              1:40.168   0.033   1.958  82.661
20.  99 GS    Automatic Racing                 1:40.180   0.012   1.970  82.651
21.  52 GS    Rehagen Racing                   1:40.391   0.211   2.181  82.478
22.  59 GS    Rehagen Racing                   1:40.456   0.065   2.246  82.424
23.  39 GS    TRG                              1:40.502   0.046   2.292  82.386
24.  07 GS    Cardiosport Racing               1:40.619   0.117   2.409  82.291
25. 150 GS    Jim Click Racing                 1:40.707   0.088   2.497  82.219
26. 137 GS    JBS Motorsports                  1:40.737   0.030   2.527  82.194
27.  87 GS    Marcus Motorsports               1:40.739   0.002   2.529  82.193
28.  90 GS    Automatic Racing                 1:40.754   0.015   2.544  82.180
29.   4 GS    Blackforest Motorsports          1:40.797   0.043   2.587  82.145
30.  88 GS    Ranger Sports Racing             1:40.885   0.088   2.675  82.074
31.  89 GS    Ranger Sports Racing             1:41.425   0.540   3.215  81.637
32.  11 GS    Southwest Racers Group           1:41.437   0.012   3.227  81.627
33.  46 GS    Fall-Line Motorsports            1:41.539   0.102   3.329  81.545
34. 156 GS    Hyper Sport                      1:41.797   0.258   3.587  81.338
35.  54 GS    Hyper Sport                      1:42.104   0.307   3.894  81.094
36.   3 GS    Blackforest Motorsports          1:42.664   0.560   4.454  80.651
37.  49 GS    Marcus Motorsports               1:43.043   0.379   4.833  80.355
38.   2 GS    Blackforest Motorsports          1:43.414   0.371   5.204  80.067
39.  10 GS    Spirit of Daytona Racing         1:44.549   1.135   6.339  79.197

Be part of something big

Write a comment
Show comments
About this article
Series Grand-Am
Drivers Jim Click
Teams Kinetic Motorsports , Rehagen Racing , Turner Motorsport , Automatic Racing , Fall-Line Motorsports